sensor_id;sensor_type;location;lat;lon;timestamp;P1;durP1;ratioP1;P2;durP2;ratioP2
64615;SDS011;51027;42.162;24.754;2022-09-03T00:07:51;25.75;;;14.85;;
64615;SDS011;51027;42.162;24.754;2022-09-03T00:13:13;27.77;;;15.05;;
64615;SDS011;51027;42.162;24.754;2022-09-03T00:15:42;24.90;;;13.85;;
64615;SDS011;51027;42.162;24.754;2022-09-03T00:18:12;27.10;;;14.73;;
64615;SDS011;51027;42.162;24.754;2022-09-03T00:20:42;27.73;;;14.57;;
64615;SDS011;51027;42.162;24.754;2022-09-03T00:23:13;25.13;;;12.77;;
64615;SDS011;51027;42.162;24.754;2022-09-03T00:25:44;23.77;;;14.20;;
64615;SDS011;51027;42.162;24.754;2022-09-03T00:28:21;24.63;;;13.32;;
64615;SDS011;51027;42.162;24.754;2022-09-03T00:30:50;25.65;;;13.30;;
64615;SDS011;51027;42.162;24.754;2022-09-03T00:33:25;26.52;;;13.65;;
64615;SDS011;51027;42.162;24.754;2022-09-03T00:38:30;26.35;;;13.77;;
64615;SDS011;51027;42.162;24.754;2022-09-03T00:43:55;25.83;;;13.75;;
64615;SDS011;51027;42.162;24.754;2022-09-03T00:49:23;25.48;;;14.00;;
64615;SDS011;51027;42.162;24.754;2022-09-03T01:00:09;27.70;;;13.55;;
64615;SDS011;51027;42.162;24.754;2022-09-03T01:13:55;26.33;;;13.20;;
64615;SDS011;51027;42.162;24.754;2022-09-03T01:16:50;23.60;;;13.05;;
64615;SDS011;51027;42.162;24.754;2022-09-03T01:25:07;23.92;;;12.93;;
64615;SDS011;51027;42.162;24.754;2022-09-03T01:30:22;24.92;;;13.02;;
64615;SDS011;51027;42.162;24.754;2022-09-03T01:33:07;24.70;;;12.50;;
64615;SDS011;51027;42.162;24.754;2022-09-03T01:35:56;25.17;;;12.65;;
64615;SDS011;51027;42.162;24.754;2022-09-03T01:38:35;23.80;;;12.50;;
64615;SDS011;51027;42.162;24.754;2022-09-03T01:52:18;22.38;;;11.50;;
64615;SDS011;51027;42.162;24.754;2022-09-03T01:54:58;23.20;;;11.32;;
64615;SDS011;51027;42.162;24.754;2022-09-03T01:57:51;23.42;;;11.70;;
64615;SDS011;51027;42.162;24.754;2022-09-03T02:00:24;24.00;;;11.18;;
64615;SDS011;51027;42.162;24.754;2022-09-03T02:02:53;21.35;;;10.70;;
64615;SDS011;51027;42.162;24.754;2022-09-03T02:05:26;22.35;;;11.20;;
64615;SDS011;51027;42.162;24.754;2022-09-03T02:10:44;22.77;;;11.45;;
64615;SDS011;51027;42.162;24.754;2022-09-03T02:15:45;24.60;;;11.57;;
64615;SDS011;51027;42.162;24.754;2022-09-03T02:18:16;22.67;;;10.73;;
64615;SDS011;51027;42.162;24.754;2022-09-03T02:20:53;20.85;;;9.90;;
64615;SDS011;51027;42.162;24.754;2022-09-03T02:23:20;23.60;;;10.88;;
64615;SDS011;51027;42.162;24.754;2022-09-03T02:25:48;23.75;;;11.27;;
64615;SDS011;51027;42.162;24.754;2022-09-03T02:30:42;22.63;;;9.93;;
64615;SDS011;51027;42.162;24.754;2022-09-03T02:33:07;24.95;;;11.23;;
64615;SDS011;51027;42.162;24.754;2022-09-03T02:35:34;23.20;;;11.63;;
64615;SDS011;51027;42.162;24.754;2022-09-03T02:38:13;22.38;;;11.57;;
64615;SDS011;51027;42.162;24.754;2022-09-03T02:40:38;22.77;;;10.32;;
64615;SDS011;51027;42.162;24.754;2022-09-03T02:43:05;22.67;;;11.18;;
64615;SDS011;51027;42.162;24.754;2022-09-03T02:45:35;22.70;;;10.15;;
64615;SDS011;51027;42.162;24.754;2022-09-03T02:48:06;21.48;;;10.52;;
64615;SDS011;51027;42.162;24.754;2022-09-03T02:50:39;22.65;;;9.73;;
64615;SDS011;51027;42.162;24.754;2022-09-03T02:53:05;21.65;;;10.68;;
64615;SDS011;51027;42.162;24.754;2022-09-03T02:55:31;22.42;;;10.77;;
64615;SDS011;51027;42.162;24.754;2022-09-03T02:57:56;21.40;;;10.63;;
64615;SDS011;51027;42.162;24.754;2022-09-03T03:00:21;21.77;;;10.90;;
64615;SDS011;51027;42.162;24.754;2022-09-03T03:02:47;21.63;;;10.88;;
64615;SDS011;51027;42.162;24.754;2022-09-03T03:05:13;19.38;;;9.15;;
64615;SDS011;51027;42.162;24.754;2022-09-03T03:07:48;28.55;;;11.25;;
64615;SDS011;51027;42.162;24.754;2022-09-03T03:10:13;20.42;;;9.70;;
64615;SDS011;51027;42.162;24.754;2022-09-03T03:12:38;20.27;;;10.27;;
64615;SDS011;51027;42.162;24.754;2022-09-03T03:15:05;19.80;;;9.45;;
64615;SDS011;51027;42.162;24.754;2022-09-03T03:17:31;22.15;;;10.18;;
64615;SDS011;51027;42.162;24.754;2022-09-03T03:19:56;21.05;;;8.63;;
64615;SDS011;51027;42.162;24.754;2022-09-03T03:22:21;20.98;;;10.20;;
64615;SDS011;51027;42.162;24.754;2022-09-03T03:24:47;21.05;;;9.65;;
64615;SDS011;51027;42.162;24.754;2022-09-03T03:27:14;19.17;;;8.13;;
64615;SDS011;51027;42.162;24.754;2022-09-03T03:29:40;19.38;;;8.65;;
64615;SDS011;51027;42.162;24.754;2022-09-03T03:32:05;21.83;;;9.38;;
64615;SDS011;51027;42.162;24.754;2022-09-03T03:34:31;21.15;;;9.70;;
64615;SDS011;51027;42.162;24.754;2022-09-03T03:36:56;21.05;;;10.25;;
64615;SDS011;51027;42.162;24.754;2022-09-03T03:39:22;20.23;;;9.75;;
64615;SDS011;51027;42.162;24.754;2022-09-03T03:41:47;21.15;;;9.13;;
64615;SDS011;51027;42.162;24.754;2022-09-03T03:44:13;22.92;;;10.20;;
64615;SDS011;51027;42.162;24.754;2022-09-03T03:46:39;22.27;;;9.90;;
64615;SDS011;51027;42.162;24.754;2022-09-03T03:49:06;21.00;;;9.00;;
64615;SDS011;51027;42.162;24.754;2022-09-03T03:51:32;20.38;;;9.40;;
64615;SDS011;51027;42.162;24.754;2022-09-03T03:53:58;21.65;;;9.32;;
64615;SDS011;51027;42.162;24.754;2022-09-03T03:56:25;21.25;;;9.48;;
64615;SDS011;51027;42.162;24.754;2022-09-03T03:58:51;20.48;;;9.25;;
64615;SDS011;51027;42.162;24.754;2022-09-03T04:01:21;20.00;;;9.25;;
64615;SDS011;51027;42.162;24.754;2022-09-03T04:03:49;19.88;;;9.55;;
64615;SDS011;51027;42.162;24.754;2022-09-03T04:06:16;20.80;;;9.15;;
64615;SDS011;51027;42.162;24.754;2022-09-03T04:08:44;20.40;;;9.40;;
64615;SDS011;51027;42.162;24.754;2022-09-03T04:11:12;19.40;;;9.05;;
64615;SDS011;51027;42.162;24.754;2022-09-03T04:13:40;19.53;;;8.43;;
64615;SDS011;51027;42.162;24.754;2022-09-03T04:16:11;21.48;;;9.25;;
64615;SDS011;51027;42.162;24.754;2022-09-03T04:18:39;19.55;;;8.23;;
64615;SDS011;51027;42.162;24.754;2022-09-03T04:23:32;20.13;;;8.15;;
64615;SDS011;51027;42.162;24.754;2022-09-03T04:25:59;18.75;;;8.10;;
64615;SDS011;51027;42.162;24.754;2022-09-03T04:28:24;19.55;;;8.52;;
64615;SDS011;51027;42.162;24.754;2022-09-03T04:30:50;19.98;;;8.98;;
64615;SDS011;51027;42.162;24.754;2022-09-03T04:33:17;18.77;;;7.85;;
64615;SDS011;51027;42.162;24.754;2022-09-03T04:35:42;20.25;;;9.32;;
64615;SDS011;51027;42.162;24.754;2022-09-03T04:38:08;18.67;;;8.25;;
64615;SDS011;51027;42.162;24.754;2022-09-03T04:40:33;20.08;;;8.57;;
64615;SDS011;51027;42.162;24.754;2022-09-03T04:42:59;19.88;;;7.88;;
64615;SDS011;51027;42.162;24.754;2022-09-03T04:45:25;19.17;;;9.18;;
64615;SDS011;51027;42.162;24.754;2022-09-03T04:47:59;18.00;;;8.18;;
64615;SDS011;51027;42.162;24.754;2022-09-03T04:50:25;19.25;;;8.15;;
64615;SDS011;51027;42.162;24.754;2022-09-03T04:52:52;17.38;;;7.35;;
64615;SDS011;51027;42.162;24.754;2022-09-03T04:55:20;19.67;;;7.57;;
64615;SDS011;51027;42.162;24.754;2022-09-03T04:57:46;17.42;;;7.35;;
64615;SDS011;51027;42.162;24.754;2022-09-03T05:00:12;17.48;;;7.30;;
64615;SDS011;51027;42.162;24.754;2022-09-03T05:02:37;16.85;;;7.13;;
64615;SDS011;51027;42.162;24.754;2022-09-03T05:05:03;19.77;;;7.47;;
64615;SDS011;51027;42.162;24.754;2022-09-03T05:07:29;17.42;;;6.97;;
64615;SDS011;51027;42.162;24.754;2022-09-03T05:10:04;17.30;;;7.40;;
64615;SDS011;51027;42.162;24.754;2022-09-03T05:12:31;18.40;;;6.93;;
64615;SDS011;51027;42.162;24.754;2022-09-03T05:14:57;17.08;;;6.43;;
64615;SDS011;51027;42.162;24.754;2022-09-03T05:17:23;19.25;;;7.55;;
64615;SDS011;51027;42.162;24.754;2022-09-03T05:19:49;16.83;;;6.90;;
64615;SDS011;51027;42.162;24.754;2022-09-03T05:22:15;17.73;;;6.72;;
64615;SDS011;51027;42.162;24.754;2022-09-03T05:24:45;15.85;;;6.38;;
64615;SDS011;51027;42.162;24.754;2022-09-03T05:27:11;16.40;;;6.45;;
64615;SDS011;51027;42.162;24.754;2022-09-03T05:29:36;16.08;;;6.18;;
64615;SDS011;51027;42.162;24.754;2022-09-03T05:32:02;18.00;;;6.80;;
64615;SDS011;51027;42.162;24.754;2022-09-03T05:34:28;16.50;;;6.03;;
64615;SDS011;51027;42.162;24.754;2022-09-03T05:36:53;16.65;;;6.40;;
64615;SDS011;51027;42.162;24.754;2022-09-03T05:39:20;16.10;;;6.53;;
64615;SDS011;51027;42.162;24.754;2022-09-03T05:41:46;15.55;;;5.63;;
64615;SDS011;51027;42.162;24.754;2022-09-03T05:44:14;15.63;;;6.05;;
64615;SDS011;51027;42.162;24.754;2022-09-03T05:46:40;15.38;;;5.60;;
64615;SDS011;51027;42.162;24.754;2022-09-03T05:49:06;19.00;;;6.05;;
64615;SDS011;51027;42.162;24.754;2022-09-03T05:51:32;18.23;;;5.93;;
64615;SDS011;51027;42.162;24.754;2022-09-03T05:53:59;16.02;;;5.50;;
64615;SDS011;51027;42.162;24.754;2022-09-03T05:56:26;16.80;;;6.15;;
64615;SDS011;51027;42.162;24.754;2022-09-03T05:58:54;16.23;;;5.75;;
64615;SDS011;51027;42.162;24.754;2022-09-03T06:01:22;16.13;;;6.00;;
64615;SDS011;51027;42.162;24.754;2022-09-03T06:03:56;15.82;;;5.85;;
64615;SDS011;51027;42.162;24.754;2022-09-03T06:06:23;16.38;;;6.57;;
64615;SDS011;51027;42.162;24.754;2022-09-03T06:08:54;15.77;;;6.05;;
64615;SDS011;51027;42.162;24.754;2022-09-03T06:11:22;16.00;;;5.95;;
64615;SDS011;51027;42.162;24.754;2022-09-03T06:13:52;17.52;;;6.43;;
64615;SDS011;51027;42.162;24.754;2022-09-03T06:16:18;17.10;;;6.28;;
64615;SDS011;51027;42.162;24.754;2022-09-03T06:18:44;15.73;;;6.38;;
64615;SDS011;51027;42.162;24.754;2022-09-03T06:21:09;14.90;;;5.57;;
64615;SDS011;51027;42.162;24.754;2022-09-03T06:23:35;17.10;;;5.80;;
64615;SDS011;51027;42.162;24.754;2022-09-03T06:28:30;16.25;;;6.22;;
64615;SDS011;51027;42.162;24.754;2022-09-03T06:30:58;17.42;;;6.63;;
64615;SDS011;51027;42.162;24.754;2022-09-03T06:33:26;15.82;;;6.50;;
64615;SDS011;51027;42.162;24.754;2022-09-03T06:35:54;17.77;;;7.77;;
64615;SDS011;51027;42.162;24.754;2022-09-03T06:38:22;22.02;;;7.18;;
64615;SDS011;51027;42.162;24.754;2022-09-03T06:40:55;18.35;;;8.10;;
64615;SDS011;51027;42.162;24.754;2022-09-03T06:43:21;18.38;;;7.45;;
64615;SDS011;51027;42.162;24.754;2022-09-03T06:45:57;17.92;;;7.28;;
64615;SDS011;51027;42.162;24.754;2022-09-03T06:48:29;18.65;;;8.73;;
64615;SDS011;51027;42.162;24.754;2022-09-03T06:53:29;17.92;;;6.45;;
64615;SDS011;51027;42.162;24.754;2022-09-03T06:55:56;17.00;;;6.53;;
64615;SDS011;51027;42.162;24.754;2022-09-03T06:58:24;18.08;;;6.50;;
64615;SDS011;51027;42.162;24.754;2022-09-03T07:00:52;17.70;;;6.93;;
64615;SDS011;51027;42.162;24.754;2022-09-03T07:03:18;17.80;;;7.18;;
64615;SDS011;51027;42.162;24.754;2022-09-03T07:05:45;18.52;;;6.80;;
64615;SDS011;51027;42.162;24.754;2022-09-03T07:08:11;16.65;;;7.60;;
64615;SDS011;51027;42.162;24.754;2022-09-03T07:10:36;16.70;;;7.25;;
64615;SDS011;51027;42.162;24.754;2022-09-03T07:13:02;17.17;;;6.65;;
64615;SDS011;51027;42.162;24.754;2022-09-03T07:15:30;16.52;;;5.97;;
64615;SDS011;51027;42.162;24.754;2022-09-03T07:17:59;16.17;;;7.13;;
64615;SDS011;51027;42.162;24.754;2022-09-03T07:20:25;16.10;;;6.00;;
64615;SDS011;51027;42.162;24.754;2022-09-03T07:22:53;16.98;;;6.47;;
64615;SDS011;51027;42.162;24.754;2022-09-03T07:25:20;15.75;;;6.05;;
64615;SDS011;51027;42.162;24.754;2022-09-03T07:27:46;17.52;;;5.90;;
64615;SDS011;51027;42.162;24.754;2022-09-03T07:30:12;16.67;;;6.32;;
64615;SDS011;51027;42.162;24.754;2022-09-03T07:32:38;18.00;;;6.90;;
64615;SDS011;51027;42.162;24.754;2022-09-03T07:35:05;16.25;;;6.50;;
64615;SDS011;51027;42.162;24.754;2022-09-03T07:37:31;18.25;;;7.35;;
64615;SDS011;51027;42.162;24.754;2022-09-03T07:39:57;17.42;;;6.43;;
64615;SDS011;51027;42.162;24.754;2022-09-03T07:42:23;16.13;;;6.68;;
64615;SDS011;51027;42.162;24.754;2022-09-03T07:44:51;14.68;;;5.55;;
64615;SDS011;51027;42.162;24.754;2022-09-03T07:47:16;12.32;;;4.60;;
64615;SDS011;51027;42.162;24.754;2022-09-03T07:49:42;12.80;;;4.43;;
64615;SDS011;51027;42.162;24.754;2022-09-03T07:52:07;11.90;;;3.80;;
64615;SDS011;51027;42.162;24.754;2022-09-03T07:54:33;13.82;;;4.50;;
64615;SDS011;51027;42.162;24.754;2022-09-03T07:56:58;12.82;;;4.57;;
64615;SDS011;51027;42.162;24.754;2022-09-03T07:59:23;11.57;;;4.13;;
64615;SDS011;51027;42.162;24.754;2022-09-03T08:01:49;12.70;;;4.28;;
64615;SDS011;51027;42.162;24.754;2022-09-03T08:04:15;13.80;;;4.35;;
64615;SDS011;51027;42.162;24.754;2022-09-03T08:06:40;13.45;;;4.55;;
64615;SDS011;51027;42.162;24.754;2022-09-03T08:09:07;14.27;;;5.22;;
64615;SDS011;51027;42.162;24.754;2022-09-03T08:11:36;13.75;;;5.32;;
64615;SDS011;51027;42.162;24.754;2022-09-03T08:14:07;13.90;;;4.88;;
64615;SDS011;51027;42.162;24.754;2022-09-03T08:16:35;15.50;;;5.57;;
64615;SDS011;51027;42.162;24.754;2022-09-03T08:19:02;14.52;;;4.82;;
64615;SDS011;51027;42.162;24.754;2022-09-03T08:21:29;12.90;;;4.78;;
64615;SDS011;51027;42.162;24.754;2022-09-03T08:23:55;13.63;;;4.85;;
64615;SDS011;51027;42.162;24.754;2022-09-03T08:26:28;14.85;;;4.82;;
64615;SDS011;51027;42.162;24.754;2022-09-03T08:28:56;13.65;;;5.50;;
64615;SDS011;51027;42.162;24.754;2022-09-03T08:31:22;14.15;;;5.63;;
64615;SDS011;51027;42.162;24.754;2022-09-03T08:33:50;15.27;;;5.45;;
64615;SDS011;51027;42.162;24.754;2022-09-03T08:36:17;14.90;;;5.15;;
64615;SDS011;51027;42.162;24.754;2022-09-03T08:38:46;14.85;;;5.60;;
64615;SDS011;51027;42.162;24.754;2022-09-03T08:41:12;15.77;;;6.55;;
64615;SDS011;51027;42.162;24.754;2022-09-03T08:49:42;15.40;;;5.40;;
64615;SDS011;51027;42.162;24.754;2022-09-03T08:52:19;16.70;;;6.32;;
64615;SDS011;51027;42.162;24.754;2022-09-03T08:54:50;15.95;;;6.00;;
64615;SDS011;51027;42.162;24.754;2022-09-03T08:57:19;15.23;;;5.78;;
64615;SDS011;51027;42.162;24.754;2022-09-03T08:59:47;15.93;;;6.25;;
64615;SDS011;51027;42.162;24.754;2022-09-03T09:05:37;15.25;;;5.93;;
64615;SDS011;51027;42.162;24.754;2022-09-03T09:08:02;14.65;;;5.68;;
64615;SDS011;51027;42.162;24.754;2022-09-03T09:10:46;15.02;;;6.22;;
64615;SDS011;51027;42.162;24.754;2022-09-03T09:13:27;15.98;;;6.60;;
64615;SDS011;51027;42.162;24.754;2022-09-03T09:24:25;14.93;;;6.30;;
64615;SDS011;51027;42.162;24.754;2022-09-03T09:26:58;16.60;;;6.50;;
64615;SDS011;51027;42.162;24.754;2022-09-03T09:29:26;16.05;;;5.88;;
64615;SDS011;51027;42.162;24.754;2022-09-03T09:31:57;15.95;;;6.47;;
64615;SDS011;51027;42.162;24.754;2022-09-03T09:34:23;15.23;;;5.82;;
64615;SDS011;51027;42.162;24.754;2022-09-03T09:36:53;16.48;;;6.10;;
64615;SDS011;51027;42.162;24.754;2022-09-03T09:39:20;14.52;;;5.72;;
64615;SDS011;51027;42.162;24.754;2022-09-03T09:41:59;14.88;;;5.70;;
64615;SDS011;51027;42.162;24.754;2022-09-03T09:44:33;13.50;;;5.57;;
64615;SDS011;51027;42.162;24.754;2022-09-03T09:47:05;13.75;;;5.20;;
64615;SDS011;51027;42.162;24.754;2022-09-03T09:52:11;14.63;;;5.45;;
64615;SDS011;51027;42.162;24.754;2022-09-03T09:54:40;22.30;;;6.10;;
64615;SDS011;51027;42.162;24.754;2022-09-03T09:57:12;15.73;;;5.75;;
64615;SDS011;51027;42.162;24.754;2022-09-03T09:59:42;13.98;;;5.03;;
64615;SDS011;51027;42.162;24.754;2022-09-03T10:02:28;16.38;;;5.93;;
64615;SDS011;51027;42.162;24.754;2022-09-03T10:05:27;15.10;;;5.15;;
64615;SDS011;51027;42.162;24.754;2022-09-03T10:08:21;14.98;;;5.75;;
64615;SDS011;51027;42.162;24.754;2022-09-03T10:10:45;16.00;;;5.55;;
64615;SDS011;51027;42.162;24.754;2022-09-03T10:13:18;14.55;;;6.15;;
64615;SDS011;51027;42.162;24.754;2022-09-03T10:18:32;15.07;;;4.85;;
64615;SDS011;51027;42.162;24.754;2022-09-03T10:21:12;15.10;;;5.90;;
64615;SDS011;51027;42.162;24.754;2022-09-03T10:26:15;16.20;;;5.93;;
64615;SDS011;51027;42.162;24.754;2022-09-03T10:28:44;15.48;;;5.70;;
64615;SDS011;51027;42.162;24.754;2022-09-03T10:36:21;15.38;;;5.97;;
64615;SDS011;51027;42.162;24.754;2022-09-03T10:44:59;13.90;;;5.50;;
64615;SDS011;51027;42.162;24.754;2022-09-03T10:53:29;15.15;;;6.30;;
64615;SDS011;51027;42.162;24.754;2022-09-03T10:56:12;15.63;;;6.57;;
64615;SDS011;51027;42.162;24.754;2022-09-03T11:06:51;15.82;;;5.75;;
64615;SDS011;51027;42.162;24.754;2022-09-03T11:12:06;14.80;;;6.18;;
64615;SDS011;51027;42.162;24.754;2022-09-03T11:14:39;16.85;;;6.00;;
64615;SDS011;51027;42.162;24.754;2022-09-03T11:17:12;15.70;;;5.85;;
64615;SDS011;51027;42.162;24.754;2022-09-03T11:19:46;15.10;;;6.13;;
64615;SDS011;51027;42.162;24.754;2022-09-03T11:22:15;15.55;;;6.28;;
64615;SDS011;51027;42.162;24.754;2022-09-03T11:24:43;15.68;;;6.22;;
64615;SDS011;51027;42.162;24.754;2022-09-03T11:30:02;15.95;;;6.00;;
64615;SDS011;51027;42.162;24.754;2022-09-03T11:35:28;15.68;;;5.80;;
64615;SDS011;51027;42.162;24.754;2022-09-03T11:38:04;14.25;;;5.38;;
64615;SDS011;51027;42.162;24.754;2022-09-03T11:43:09;14.80;;;6.28;;
64615;SDS011;51027;42.162;24.754;2022-09-03T11:45:39;13.13;;;4.85;;
64615;SDS011;51027;42.162;24.754;2022-09-03T11:48:18;13.57;;;4.78;;
64615;SDS011;51027;42.162;24.754;2022-09-03T11:50:57;14.60;;;4.85;;
64615;SDS011;51027;42.162;24.754;2022-09-03T11:53:24;12.35;;;4.90;;
64615;SDS011;51027;42.162;24.754;2022-09-03T11:56:08;12.60;;;4.22;;
64615;SDS011;51027;42.162;24.754;2022-09-03T11:58:41;13.52;;;4.65;;
64615;SDS011;51027;42.162;24.754;2022-09-03T12:01:08;12.65;;;5.07;;
64615;SDS011;51027;42.162;24.754;2022-09-03T12:03:50;13.70;;;4.85;;
64615;SDS011;51027;42.162;24.754;2022-09-03T12:17:10;11.45;;;4.15;;
64615;SDS011;51027;42.162;24.754;2022-09-03T12:19:39;12.55;;;3.97;;
64615;SDS011;51027;42.162;24.754;2022-09-03T12:22:15;12.02;;;4.28;;
64615;SDS011;51027;42.162;24.754;2022-09-03T12:24:42;12.07;;;3.90;;
64615;SDS011;51027;42.162;24.754;2022-09-03T12:27:12;11.45;;;4.15;;
64615;SDS011;51027;42.162;24.754;2022-09-03T12:29:55;9.55;;;3.60;;
64615;SDS011;51027;42.162;24.754;2022-09-03T12:32:30;11.43;;;3.72;;
64615;SDS011;51027;42.162;24.754;2022-09-03T12:35:37;11.98;;;3.67;;
64615;SDS011;51027;42.162;24.754;2022-09-03T12:37:55;9.90;;;3.80;;
64615;SDS011;51027;42.162;24.754;2022-09-03T12:40:22;12.13;;;4.00;;
64615;SDS011;51027;42.162;24.754;2022-09-03T12:45:23;13.85;;;5.18;;
64615;SDS011;51027;42.162;24.754;2022-09-03T12:47:51;13.90;;;4.93;;
64615;SDS011;51027;42.162;24.754;2022-09-03T12:50:21;11.95;;;4.43;;
64615;SDS011;51027;42.162;24.754;2022-09-03T12:52:52;11.68;;;4.30;;
64615;SDS011;51027;42.162;24.754;2022-09-03T13:05:53;9.88;;;3.33;;
64615;SDS011;51027;42.162;24.754;2022-09-03T13:08:30;6.88;;;3.20;;
64615;SDS011;51027;42.162;24.754;2022-09-03T13:10:59;8.95;;;3.15;;
64615;SDS011;51027;42.162;24.754;2022-09-03T13:13:30;9.63;;;3.40;;
64615;SDS011;51027;42.162;24.754;2022-09-03T13:30:29;7.88;;;2.80;;
64615;SDS011;51027;42.162;24.754;2022-09-03T13:33:23;9.98;;;3.28;;
64615;SDS011;51027;42.162;24.754;2022-09-03T13:38:50;10.55;;;2.83;;
64615;SDS011;51027;42.162;24.754;2022-09-03T13:47:11;6.10;;;2.50;;
64615;SDS011;51027;42.162;24.754;2022-09-03T13:49:50;6.50;;;2.58;;
64615;SDS011;51027;42.162;24.754;2022-09-03T13:55:43;8.00;;;2.95;;
64615;SDS011;51027;42.162;24.754;2022-09-03T13:58:28;7.03;;;2.93;;
64615;SDS011;51027;42.162;24.754;2022-09-03T14:20:25;5.82;;;2.53;;
64615;SDS011;51027;42.162;24.754;2022-09-03T14:25:34;18.27;;;3.95;;
64615;SDS011;51027;42.162;24.754;2022-09-03T14:28:13;8.52;;;3.00;;
64615;SDS011;51027;42.162;24.754;2022-09-03T14:42:35;10.77;;;3.33;;
64615;SDS011;51027;42.162;24.754;2022-09-03T14:45:26;5.55;;;2.63;;
64615;SDS011;51027;42.162;24.754;2022-09-03T14:57:05;9.57;;;3.25;;
64615;SDS011;51027;42.162;24.754;2022-09-03T15:05:00;6.03;;;2.35;;
64615;SDS011;51027;42.162;24.754;2022-09-03T15:13:18;6.65;;;2.47;;
64615;SDS011;51027;42.162;24.754;2022-09-03T15:15:58;7.20;;;2.65;;
64615;SDS011;51027;42.162;24.754;2022-09-03T15:30:16;6.78;;;2.67;;
64615;SDS011;51027;42.162;24.754;2022-09-03T15:38:20;8.57;;;3.00;;
64615;SDS011;51027;42.162;24.754;2022-09-03T15:41:24;9.13;;;3.20;;
64615;SDS011;51027;42.162;24.754;2022-09-03T15:43:56;11.32;;;3.60;;
64615;SDS011;51027;42.162;24.754;2022-09-03T15:46:44;10.73;;;3.80;;
64615;SDS011;51027;42.162;24.754;2022-09-03T15:49:26;12.98;;;3.88;;
64615;SDS011;51027;42.162;24.754;2022-09-03T15:57:39;12.23;;;4.30;;
64615;SDS011;51027;42.162;24.754;2022-09-03T16:00:07;10.80;;;4.38;;
64615;SDS011;51027;42.162;24.754;2022-09-03T16:02:41;11.68;;;4.30;;
64615;SDS011;51027;42.162;24.754;2022-09-03T16:16:25;9.10;;;2.90;;
64615;SDS011;51027;42.162;24.754;2022-09-03T16:22:11;8.77;;;2.97;;
64615;SDS011;51027;42.162;24.754;2022-09-03T16:27:39;8.32;;;2.90;;
64615;SDS011;51027;42.162;24.754;2022-09-03T16:30:08;8.23;;;3.10;;
64615;SDS011;51027;42.162;24.754;2022-09-03T16:33:05;11.85;;;3.40;;
64615;SDS011;51027;42.162;24.754;2022-09-03T16:47:40;12.40;;;3.65;;
64615;SDS011;51027;42.162;24.754;2022-09-03T16:50:38;11.25;;;3.65;;
64615;SDS011;51027;42.162;24.754;2022-09-03T16:53:09;12.98;;;3.72;;
64615;SDS011;51027;42.162;24.754;2022-09-03T17:04:57;12.57;;;3.90;;
64615;SDS011;51027;42.162;24.754;2022-09-03T17:07:31;8.85;;;2.85;;
64615;SDS011;51027;42.162;24.754;2022-09-03T17:10:22;10.82;;;3.25;;
64615;SDS011;51027;42.162;24.754;2022-09-03T17:23:56;11.88;;;3.45;;
64615;SDS011;51027;42.162;24.754;2022-09-03T17:26:29;9.65;;;3.28;;
64615;SDS011;51027;42.162;24.754;2022-09-03T17:37:46;11.68;;;4.35;;
64615;SDS011;51027;42.162;24.754;2022-09-03T17:42:47;14.18;;;4.13;;
64615;SDS011;51027;42.162;24.754;2022-09-03T17:45:46;12.35;;;4.13;;
64615;SDS011;51027;42.162;24.754;2022-09-03T17:51:23;12.38;;;4.78;;
64615;SDS011;51027;42.162;24.754;2022-09-03T17:54:04;12.38;;;4.43;;
64615;SDS011;51027;42.162;24.754;2022-09-03T18:07:22;11.82;;;4.45;;
64615;SDS011;51027;42.162;24.754;2022-09-03T18:09:58;11.45;;;4.30;;
64615;SDS011;51027;42.162;24.754;2022-09-03T18:12:42;12.15;;;4.30;;
64615;SDS011;51027;42.162;24.754;2022-09-03T18:15:47;12.85;;;5.05;;
64615;SDS011;51027;42.162;24.754;2022-09-03T18:18:27;12.30;;;4.63;;
64615;SDS011;51027;42.162;24.754;2022-09-03T18:20:58;12.73;;;4.50;;
64615;SDS011;51027;42.162;24.754;2022-09-03T18:26:40;13.70;;;4.90;;
64615;SDS011;51027;42.162;24.754;2022-09-03T18:29:36;13.38;;;5.20;;
64615;SDS011;51027;42.162;24.754;2022-09-03T18:35:12;19.02;;;5.65;;
64615;SDS011;51027;42.162;24.754;2022-09-03T18:38:02;12.27;;;5.00;;
64615;SDS011;51027;42.162;24.754;2022-09-03T18:47:46;13.80;;;5.20;;
64615;SDS011;51027;42.162;24.754;2022-09-03T18:50:43;16.05;;;5.53;;
64615;SDS011;51027;42.162;24.754;2022-09-03T19:06:00;16.13;;;7.25;;
64615;SDS011;51027;42.162;24.754;2022-09-03T19:15:52;15.52;;;6.55;;
64615;SDS011;51027;42.162;24.754;2022-09-03T19:22:43;14.98;;;5.45;;
64615;SDS011;51027;42.162;24.754;2022-09-03T19:25:40;14.00;;;5.68;;
64615;SDS011;51027;42.162;24.754;2022-09-03T19:28:28;15.57;;;5.72;;
64615;SDS011;51027;42.162;24.754;2022-09-03T19:41:07;18.98;;;9.05;;
64615;SDS011;51027;42.162;24.754;2022-09-03T19:50:10;14.57;;;6.40;;
64615;SDS011;51027;42.162;24.754;2022-09-03T19:53:10;14.50;;;6.18;;
64615;SDS011;51027;42.162;24.754;2022-09-03T19:59:39;15.63;;;6.30;;
64615;SDS011;51027;42.162;24.754;2022-09-03T20:02:24;15.20;;;5.95;;
64615;SDS011;51027;42.162;24.754;2022-09-03T20:05:54;18.08;;;6.20;;
64615;SDS011;51027;42.162;24.754;2022-09-03T20:08:18;13.68;;;5.97;;
64615;SDS011;51027;42.162;24.754;2022-09-03T20:11:18;15.85;;;6.18;;
64615;SDS011;51027;42.162;24.754;2022-09-03T20:14:04;14.32;;;6.00;;
64615;SDS011;51027;42.162;24.754;2022-09-03T20:50:31;17.98;;;8.02;;
64615;SDS011;51027;42.162;24.754;2022-09-03T21:00:05;19.13;;;9.93;;
64615;SDS011;51027;42.162;24.754;2022-09-03T21:11:47;20.52;;;11.93;;
64615;SDS011;51027;42.162;24.754;2022-09-03T21:17:21;28.13;;;20.63;;
64615;SDS011;51027;42.162;24.754;2022-09-03T21:23:16;26.23;;;18.48;;
64615;SDS011;51027;42.162;24.754;2022-09-03T21:29:10;18.88;;;8.70;;
64615;SDS011;51027;42.162;24.754;2022-09-03T21:34:26;16.33;;;7.53;;
64615;SDS011;51027;42.162;24.754;2022-09-03T21:36:55;16.38;;;7.75;;
64615;SDS011;51027;42.162;24.754;2022-09-03T21:52:11;14.63;;;6.15;;
64615;SDS011;51027;42.162;24.754;2022-09-03T21:54:59;15.00;;;6.63;;
64615;SDS011;51027;42.162;24.754;2022-09-03T22:00:53;14.30;;;5.85;;
64615;SDS011;51027;42.162;24.754;2022-09-03T22:03:30;14.88;;;5.63;;
64615;SDS011;51027;42.162;24.754;2022-09-03T22:05:56;15.52;;;6.45;;
64615;SDS011;51027;42.162;24.754;2022-09-03T22:11:17;13.90;;;5.80;;
64615;SDS011;51027;42.162;24.754;2022-09-03T22:14:01;13.35;;;5.43;;
64615;SDS011;51027;42.162;24.754;2022-09-03T22:19:08;13.43;;;5.30;;
64615;SDS011;51027;42.162;24.754;2022-09-03T22:26:42;14.23;;;5.40;;
64615;SDS011;51027;42.162;24.754;2022-09-03T22:29:39;12.60;;;5.15;;
64615;SDS011;51027;42.162;24.754;2022-09-03T22:34:42;15.07;;;5.53;;
64615;SDS011;51027;42.162;24.754;2022-09-03T22:40:09;13.10;;;4.80;;
64615;SDS011;51027;42.162;24.754;2022-09-03T22:50:58;13.63;;;4.88;;
64615;SDS011;51027;42.162;24.754;2022-09-03T22:56:16;12.68;;;4.50;;
64615;SDS011;51027;42.162;24.754;2022-09-03T23:01:32;13.85;;;5.30;;
64615;SDS011;51027;42.162;24.754;2022-09-03T23:07:38;12.82;;;4.63;;
64615;SDS011;51027;42.162;24.754;2022-09-03T23:10:04;16.17;;;5.57;;
64615;SDS011;51027;42.162;24.754;2022-09-03T23:12:38;13.57;;;4.70;;
64615;SDS011;51027;42.162;24.754;2022-09-03T23:15:12;14.05;;;5.25;;